Time;durP1;ratioP1;P1;durP2;ratioP2;P2;SDS_P1;SDS_P2;PMS_P1;PMS_P2;Temp;Humidity;BMP_temperature;BMP_pressure;BME280_temperature;BME280_humidity;BME280_pressure;Samples;Min_cycle;Max_cycle;Signal;HPM_P1;HPM_P2
2023/06/15 00:00:49;;;;;;;6.20;2.22;;;19.60;84.50;;;;;;5116984;27;20262;-59
2023/06/15 00:03:16;;;;;;;4.20;2.05;;;19.60;84.70;;;;;;5130356;27;20042;-58
2023/06/15 00:05:41;;;;;;;5.53;2.10;;;19.50;84.70;;;;;;5132108;27;20035;-59
2023/06/15 00:08:07;;;;;;;6.97;2.10;;;19.50;84.80;;;;;;5131644;27;20405;-58
2023/06/15 00:10:33;;;;;;;4.55;2.15;;;19.50;85.00;;;;;;5131642;27;20064;-58
2023/06/15 00:12:58;;;;;;;6.13;2.17;;;19.50;85.20;;;;;;5130739;27;20035;-59
2023/06/15 00:15:27;;;;;;;5.50;2.50;;;19.40;85.20;;;;;;5131830;27;20382;-59
2023/06/15 00:17:54;;;;;;;7.13;2.30;;;19.40;85.40;;;;;;5110207;28;20035;-59
2023/06/15 00:20:22;;;;;;;5.95;2.28;;;19.30;85.70;;;;;;5111273;28;20495;-59
2023/06/15 00:22:49;;;;;;;6.30;2.33;;;19.20;85.90;;;;;;5111182;28;20032;-59
2023/06/15 00:25:15;;;;;;;7.63;2.55;;;19.20;86.80;;;;;;5110397;28;20051;-58
2023/06/15 00:27:41;;;;;;;4.70;2.33;;;19.10;86.40;;;;;;5111098;28;20146;-59
2023/06/15 00:30:10;;;;;;;6.10;2.65;;;19.10;86.70;;;;;;5131318;27;20138;-59
2023/06/15 00:32:35;;;;;;;5.15;2.65;;;19.10;87.10;;;;;;5131437;27;20038;-59
2023/06/15 00:35:01;;;;;;;9.82;2.88;;;19.00;87.30;;;;;;5131100;27;20047;-58
2023/06/15 00:37:27;;;;;;;5.63;3.05;;;19.10;87.40;;;;;;5131501;28;20386;-58
2023/06/15 00:39:54;;;;;;;5.80;3.72;;;19.00;87.60;;;;;;5131009;28;20042;-59
2023/06/15 00:42:19;;;;;;;5.40;2.90;;;19.00;88.10;;;;;;5131039;27;20523;-59
2023/06/15 00:44:45;;;;;;;5.47;2.92;;;18.90;88.20;;;;;;5131236;28;20038;-60
2023/06/15 00:47:11;;;;;;;4.57;2.80;;;18.90;88.50;;;;;;5131195;28;20091;-58
2023/06/15 00:49:37;;;;;;;5.68;3.10;;;18.80;88.90;;;;;;5111675;28;20040;-58
2023/06/15 00:52:03;;;;;;;7.40;3.40;;;18.80;89.10;;;;;;5110991;28;20047;-60
2023/06/15 00:54:29;;;;;;;8.20;2.90;;;18.70;89.40;;;;;;5110848;28;20071;-59
2023/06/15 00:56:56;;;;;;;8.60;3.15;;;18.70;89.70;;;;;;5111073;28;20127;-58
2023/06/15 00:59:22;;;;;;;5.00;3.03;;;18.60;90.00;;;;;;5111026;28;20032;-58
2023/06/15 01:01:49;;;;;;;6.05;3.38;;;18.60;90.00;;;;;;5129252;28;20091;-59
2023/06/15 01:04:15;;;;;;;6.15;3.03;;;18.50;90.10;;;;;;5131323;27;20462;-59
2023/06/15 01:06:51;;;;;;;7.30;3.13;;;18.50;90.20;;;;;;5131085;28;20047;-59
2023/06/15 01:09:21;;;;;;;7.47;3.30;;;18.40;90.30;;;;;;5130550;27;20035;-58
2023/06/15 01:11:54;;;;;;;7.82;3.20;;;18.30;90.40;;;;;;5128293;27;20539;-60
2023/06/15 01:14:23;;;;;;;7.80;3.00;;;18.30;90.40;;;;;;5110324;28;20036;-60
2023/06/15 01:17:05;;;;;;;9.80;3.20;;;18.20;90.50;;;;;;5110610;28;20467;-59
2023/06/15 01:19:54;;;;;;;7.68;3.13;;;18.20;90.60;;;;;;5110575;28;20072;-59
2023/06/15 01:22:35;;;;;;;6.22;3.30;;;18.10;90.80;;;;;;5110492;28;20161;-59
2023/06/15 01:25:14;;;;;;;7.95;3.20;;;18.10;90.80;;;;;;5110488;28;20050;-59
2023/06/15 01:27:41;;;;;;;7.28;3.60;;;18.10;90.90;;;;;;5110507;28;20491;-60
2023/06/15 01:30:09;;;;;;;7.47;3.47;;;18.00;91.00;;;;;;5110392;28;20494;-59
2023/06/15 01:32:35;;;;;;;5.72;3.33;;;17.90;91.00;;;;;;5123198;28;20043;-60
2023/06/15 01:35:01;;;;;;;5.63;3.05;;;17.90;91.10;;;;;;5125332;28;20050;-57
2023/06/15 01:37:26;;;;;;;5.75;3.17;;;17.90;91.10;;;;;;5130700;28;20156;-59
2023/06/15 01:39:52;;;;;;;6.65;3.40;;;17.80;91.30;;;;;;5130256;27;20027;-58
2023/06/15 01:42:18;;;;;;;7.03;3.42;;;17.80;91.30;;;;;;5126026;27;20028;-59
2023/06/15 01:44:47;;;;;;;8.43;3.58;;;17.70;91.40;;;;;;5113936;28;20150;-59
2023/06/15 01:47:12;;;;;;;6.30;3.10;;;17.70;91.40;;;;;;5132725;27;20159;-59
2023/06/15 01:49:40;;;;;;;6.78;3.40;;;17.60;91.50;;;;;;5127604;27;20051;-58
2023/06/15 01:52:06;;;;;;;5.35;3.08;;;17.60;91.60;;;;;;5113728;27;20048;-58
2023/06/15 01:54:32;;;;;;;5.15;3.20;;;17.60;91.60;;;;;;5114013;28;20081;-58
2023/06/15 01:56:58;;;;;;;7.28;3.47;;;17.60;91.70;;;;;;5113931;28;20055;-59
2023/06/15 01:59:24;;;;;;;8.23;3.35;;;17.60;91.70;;;;;;5113979;27;20454;-59
2023/06/15 02:01:49;;;;;;;5.68;3.10;;;17.50;92.00;;;;;;5113573;28;20166;-60
2023/06/15 02:04:15;;;;;;;6.68;3.65;;;17.50;91.80;;;;;;5113437;28;20475;-60
2023/06/15 02:06:40;;;;;;;6.35;3.20;;;17.50;91.90;;;;;;5113672;28;20074;-59
2023/06/15 02:09:06;;;;;;;6.65;3.30;;;17.40;91.90;;;;;;5116314;27;20039;-57
2023/06/15 02:11:32;;;;;;;5.43;3.45;;;17.40;92.00;;;;;;5133745;27;20033;-57
2023/06/15 02:13:59;;;;;;;10.25;3.65;;;17.30;92.00;;;;;;5133550;27;20038;-58
2023/06/15 02:16:26;;;;;;;7.18;3.80;;;17.30;92.20;;;;;;5133750;27;20073;-58
2023/06/15 02:18:52;;;;;;;6.95;3.35;;;17.30;92.20;;;;;;5115424;27;20110;-58
2023/06/15 02:21:18;;;;;;;6.78;3.50;;;17.20;92.30;;;;;;5123361;27;20476;-58
2023/06/15 02:23:45;;;;;;;6.70;3.30;;;17.20;92.30;;;;;;5113034;28;20107;-59
2023/06/15 02:26:11;;;;;;;7.57;3.53;;;17.20;92.40;;;;;;5113059;28;20047;-59
2023/06/15 02:28:36;;;;;;;5.63;3.42;;;17.10;92.40;;;;;;5113000;27;20097;-59
2023/06/15 02:31:02;;;;;;;6.72;3.20;;;17.10;92.50;;;;;;5113236;28;20043;-58
2023/06/15 02:33:28;;;;;;;6.22;3.70;;;17.10;92.50;;;;;;5112831;28;20043;-58
2023/06/15 02:35:53;;;;;;;6.22;3.55;;;17.10;92.60;;;;;;5129456;27;20055;-58
2023/06/15 02:38:20;;;;;;;6.57;3.30;;;17.00;92.60;;;;;;5133290;27;20473;-58
2023/06/15 02:40:45;;;;;;;6.97;3.72;;;17.00;92.70;;;;;;5132357;27;20110;-59
2023/06/15 02:43:11;;;;;;;7.55;3.50;;;17.00;92.70;;;;;;5133611;27;20549;-59
2023/06/15 02:45:37;;;;;;;6.00;3.38;;;17.00;92.80;;;;;;5132098;27;20083;-58
2023/06/15 02:48:03;;;;;;;8.13;3.63;;;16.90;92.80;;;;;;5127466;27;20105;-58
2023/06/15 02:50:29;;;;;;;7.65;3.67;;;16.90;92.90;;;;;;5133259;27;20039;-58
2023/06/15 02:52:55;;;;;;;7.95;3.75;;;16.90;92.90;;;;;;5133468;27;20041;-58
2023/06/15 02:55:21;;;;;;;7.93;3.50;;;16.90;93.00;;;;;;5132945;27;20043;-58
2023/06/15 02:57:47;;;;;;;8.65;3.80;;;16.80;93.00;;;;;;5131947;27;20046;-59
2023/06/15 03:00:13;;;;;;;7.50;3.70;;;16.80;93.10;;;;;;5133246;27;20108;-57
2023/06/15 03:02:39;;;;;;;6.22;3.55;;;16.80;93.20;;;;;;5133151;27;20068;-58
2023/06/15 03:05:05;;;;;;;6.70;3.30;;;16.80;93.20;;;;;;5126536;27;20071;-58
2023/06/15 03:07:31;;;;;;;6.57;3.53;;;16.70;93.20;;;;;;5112294;28;20046;-59
2023/06/15 03:09:56;;;;;;;7.40;3.38;;;16.70;93.30;;;;;;5128903;27;20039;-59
2023/06/15 03:12:22;;;;;;;6.10;3.15;;;16.70;93.40;;;;;;5117819;27;20115;-59
2023/06/15 03:14:51;;;;;;;8.50;3.55;;;16.70;93.40;;;;;;5112218;28;20117;-58
2023/06/15 03:17:18;;;;;;;8.15;3.55;;;16.70;93.60;;;;;;5112345;28;20049;-58
2023/06/15 03:19:46;;;;;;;10.15;3.60;;;16.70;93.40;;;;;;5112688;28;20027;-58
2023/06/15 03:22:12;;;;;;;6.43;3.70;;;16.60;93.40;;;;;;5125351;27;20046;-57
2023/06/15 03:24:39;;;;;;;5.70;3.65;;;16.60;93.50;;;;;;5132897;27;20042;-58
2023/06/15 03:27:06;;;;;;;6.97;3.67;;;16.60;93.60;;;;;;5132744;27;20078;-58
2023/06/15 03:29:36;;;;;;;7.30;3.67;;;16.50;93.70;;;;;;5131401;27;20078;-59
2023/06/15 03:32:09;;;;;;;10.00;3.88;;;16.50;93.70;;;;;;5110466;28;20039;-58
2023/06/15 03:34:38;;;;;;;6.93;3.65;;;16.50;93.80;;;;;;5111378;28;20048;-59
2023/06/15 03:37:05;;;;;;;9.70;4.25;;;16.40;93.90;;;;;;5111048;28;20039;-58
2023/06/15 03:39:31;;;;;;;6.53;3.72;;;16.40;93.90;;;;;;5115266;27;20038;-59
2023/06/15 03:41:56;;;;;;;6.53;3.80;;;16.30;94.00;;;;;;5111738;28;20487;-59
2023/06/15 03:44:22;;;;;;;7.15;3.83;;;16.30;94.10;;;;;;5110413;28;20475;-58
2023/06/15 03:46:48;;;;;;;7.45;4.07;;;16.30;94.20;;;;;;5116663;27;20305;-58
2023/06/15 03:49:14;;;;;;;7.40;3.90;;;16.30;94.30;;;;;;5111905;28;20055;-59
2023/06/15 03:51:39;;;;;;;8.52;4.03;;;16.30;94.30;;;;;;5130469;27;20045;-59
2023/06/15 03:54:05;;;;;;;9.13;4.18;;;16.30;94.30;;;;;;5131893;27;20035;-58
2023/06/15 03:56:31;;;;;;;8.15;4.05;;;16.30;94.40;;;;;;5108159;28;20065;-59
2023/06/15 03:58:57;;;;;;;7.10;3.90;;;16.20;94.60;;;;;;5111785;28;20027;-59
2023/06/15 04:01:25;;;;;;;10.07;3.92;;;16.20;94.50;;;;;;5129425;27;20059;-58
2023/06/15 04:03:51;;;;;;;7.72;4.32;;;16.20;94.60;;;;;;5130579;27;20367;-58
2023/06/15 04:06:18;;;;;;;7.65;3.90;;;16.20;94.60;;;;;;5131626;27;20039;-58
2023/06/15 04:08:44;;;;;;;6.28;3.88;;;16.20;94.60;;;;;;5131199;27;20156;-58
2023/06/15 04:11:09;;;;;;;6.32;4.05;;;16.20;94.70;;;;;;5132089;27;20512;-58
2023/06/15 04:13:35;;;;;;;7.50;3.80;;;16.30;95.00;;;;;;5130682;27;20035;-59
2023/06/15 04:16:01;;;;;;;6.97;4.22;;;16.30;94.80;;;;;;5131537;27;20036;-59
2023/06/15 04:18:27;;;;;;;7.78;4.10;;;16.30;94.80;;;;;;5131754;27;20046;-59
2023/06/15 04:20:52;;;;;;;5.53;3.78;;;16.30;94.80;;;;;;5131475;27;20087;-59
2023/06/15 04:23:18;;;;;;;8.82;3.83;;;16.30;94.80;;;;;;5131763;27;20050;-58
2023/06/15 04:25:45;;;;;;;7.22;3.78;;;16.30;94.80;;;;;;5130362;27;20043;-59
2023/06/15 04:28:10;;;;;;;6.57;4.18;;;16.30;94.80;;;;;;5131898;27;20039;-58
2023/06/15 04:30:40;;;;;;;8.30;4.07;;;16.30;94.90;;;;;;5127048;27;20497;-59
2023/06/15 04:33:12;;;;;;;6.78;4.03;;;16.30;94.90;;;;;;5110881;28;20034;-58
2023/06/15 04:35:45;;;;;;;11.02;4.72;;;16.40;95.00;;;;;;5110660;28;20065;-60
2023/06/15 04:38:12;;;;;;;6.53;3.88;;;16.30;94.90;;;;;;5111137;28;20111;-58
2023/06/15 04:40:39;;;;;;;9.07;4.13;;;16.40;95.00;;;;;;5131114;27;20046;-59
2023/06/15 04:43:05;;;;;;;8.15;4.45;;;16.40;95.00;;;;;;5131479;27;20049;-58
2023/06/15 04:45:30;;;;;;;6.65;3.83;;;16.40;95.00;;;;;;5131206;28;20118;-60
2023/06/15 04:47:56;;;;;;;8.90;4.20;;;16.40;95.00;;;;;;5131453;28;20041;-59
2023/06/15 04:50:22;;;;;;;9.23;4.45;;;16.50;95.00;;;;;;5131430;28;20043;-59
2023/06/15 04:52:48;;;;;;;8.82;4.35;;;16.50;95.20;;;;;;5129731;28;20122;-59
2023/06/15 04:55:14;;;;;;;7.85;4.30;;;16.50;95.20;;;;;;5131563;27;20075;-59
2023/06/15 04:57:40;;;;;;;7.03;4.05;;;16.50;94.90;;;;;;5129795;28;20470;-59
2023/06/15 05:00:09;;;;;;;7.95;4.18;;;16.60;94.90;;;;;;5120729;27;20069;-59
2023/06/15 05:02:35;;;;;;;10.63;4.22;;;16.70;94.90;;;;;;5110663;28;20031;-59
2023/06/15 05:05:01;;;;;;;9.05;4.00;;;16.70;94.80;;;;;;5128691;28;20054;-59
2023/06/15 05:07:27;;;;;;;8.48;4.20;;;16.70;94.80;;;;;;5113033;28;20070;-59
2023/06/15 05:09:52;;;;;;;10.30;3.88;;;16.80;94.80;;;;;;5109964;28;20394;-58
2023/06/15 05:12:18;;;;;;;8.05;4.10;;;16.80;95.00;;;;;;5129048;28;20050;-59
2023/06/15 05:14:43;;;;;;;9.65;4.45;;;16.90;94.60;;;;;;5131232;28;20095;-59
2023/06/15 05:17:09;;;;;;;7.93;4.47;;;16.90;94.50;;;;;;5119827;28;20463;-60
2023/06/15 05:19:35;;;;;;;9.38;4.32;;;17.00;94.50;;;;;;5114699;28;20028;-59
2023/06/15 05:22:01;;;;;;;11.52;4.07;;;17.00;94.40;;;;;;5132819;27;20044;-60
2023/06/15 05:24:27;;;;;;;7.95;3.95;;;17.10;94.30;;;;;;5134210;27;20057;-59
2023/06/15 05:26:53;;;;;;;7.82;3.95;;;17.20;94.20;;;;;;5113199;28;20487;-59
2023/06/15 05:29:22;;;;;;;7.65;4.18;;;17.20;94.20;;;;;;5114571;28;20028;-59
2023/06/15 05:31:48;;;;;;;11.68;3.90;;;17.30;94.10;;;;;;5114599;28;20047;-59
2023/06/15 05:34:14;;;;;;;6.82;3.88;;;17.30;94.00;;;;;;5113886;28;20457;-59
2023/06/15 05:36:40;;;;;;;9.50;3.65;;;17.30;93.90;;;;;;5116177;27;20062;-59
2023/06/15 05:39:06;;;;;;;7.72;4.30;;;17.50;94.00;;;;;;5134241;27;20035;-59
2023/06/15 05:41:32;;;;;;;11.35;4.03;;;17.60;93.90;;;;;;5134514;27;20034;-58
2023/06/15 05:44:01;;;;;;;10.15;4.00;;;17.60;93.80;;;;;;5134709;27;20039;-59
2023/06/15 05:46:27;;;;;;;6.22;3.60;;;17.60;93.60;;;;;;5134290;27;20095;-60
2023/06/15 05:48:53;;;;;;;7.40;3.58;;;17.70;93.40;;;;;;5129130;27;20035;-58
2023/06/15 05:51:18;;;;;;;7.95;3.83;;;17.80;93.30;;;;;;5120098;27;20133;-60
2023/06/15 05:53:44;;;;;;;7.60;3.78;;;17.80;93.30;;;;;;5112629;28;20064;-59
2023/06/15 05:56:10;;;;;;;8.27;4.32;;;17.90;93.10;;;;;;5113647;28;20471;-61
2023/06/15 05:58:37;;;;;;;7.38;3.85;;;17.90;92.90;;;;;;5133963;27;20483;-58
2023/06/15 06:01:03;;;;;;;8.35;3.50;;;18.00;92.90;;;;;;5134563;27;20027;-59
2023/06/15 06:03:29;;;;;;;7.25;3.25;;;18.10;92.70;;;;;;5114580;27;20126;-59
2023/06/15 06:05:55;;;;;;;8.35;3.30;;;18.10;92.40;;;;;;5134253;27;20404;-59
2023/06/15 06:08:21;;;;;;;6.20;3.20;;;18.20;92.40;;;;;;5120381;27;20031;-59
2023/06/15 06:10:47;;;;;;;8.23;3.63;;;18.30;92.10;;;;;;5111744;28;20043;-60
2023/06/15 06:13:13;;;;;;;6.80;3.40;;;18.30;91.80;;;;;;5117754;27;20088;-60
2023/06/15 06:15:38;;;;;;;7.70;3.40;;;18.40;91.60;;;;;;5132394;27;20043;-59
2023/06/15 06:18:04;;;;;;;6.05;3.20;;;18.50;91.60;;;;;;5098323;27;20369;-59
2023/06/15 06:20:31;;;;;;;6.40;3.17;;;18.50;91.60;;;;;;5090944;27;20054;-59
2023/06/15 06:22:57;;;;;;;7.65;3.00;;;18.60;91.30;;;;;;5091545;28;20031;-58
2023/06/15 06:25:23;;;;;;;6.28;3.30;;;18.60;91.10;;;;;;5096376;28;20035;-60
2023/06/15 06:27:48;;;;;;;5.57;3.10;;;18.70;90.90;;;;;;5098512;28;20165;-59
2023/06/15 06:30:14;;;;;;;5.78;3.20;;;18.80;90.70;;;;;;5097481;27;20088;-59
2023/06/15 06:32:40;;;;;;;5.70;3.10;;;18.80;90.50;;;;;;5092667;28;20543;-59
2023/06/15 06:35:06;;;;;;;7.63;3.00;;;18.90;90.30;;;;;;5096838;28;20055;-60
2023/06/15 06:37:32;;;;;;;6.60;2.65;;;19.00;90.10;;;;;;5098462;28;20070;-59
2023/06/15 06:39:58;;;;;;;7.25;2.65;;;19.10;90.30;;;;;;5098108;27;20065;-59
2023/06/15 06:42:24;;;;;;;6.30;2.58;;;19.10;90.30;;;;;;5098482;28;20042;-60
2023/06/15 06:44:49;;;;;;;5.35;2.58;;;19.20;89.70;;;;;;5098081;28;20118;-59
2023/06/15 06:47:15;;;;;;;7.72;3.20;;;19.20;88.90;;;;;;5098788;27;20139;-59
2023/06/15 06:49:41;;;;;;;6.25;2.72;;;19.30;88.50;;;;;;5098832;28;20100;-60
2023/06/15 06:52:07;;;;;;;4.32;2.47;;;19.40;88.20;;;;;;5098541;28;20057;-59
2023/06/15 06:54:32;;;;;;;5.05;2.35;;;19.40;88.30;;;;;;5097264;28;20031;-59
2023/06/15 06:56:59;;;;;;;7.50;2.60;;;19.50;88.30;;;;;;5098470;28;20044;-59
2023/06/15 06:59:25;;;;;;;7.55;2.53;;;19.60;88.30;;;;;;5105874;27;20862;-60
2023/06/15 07:01:51;;;;;;;7.90;2.45;;;19.70;87.70;;;;;;5097178;28;20036;-59
2023/06/15 07:04:16;;;;;;;5.78;2.38;;;19.70;87.60;;;;;;5094346;28;20126;-59
2023/06/15 07:06:42;;;;;;;6.70;2.70;;;19.80;87.80;;;;;;5092039;28;20032;-60
2023/06/15 07:09:08;;;;;;;7.22;2.70;;;19.90;87.00;;;;;;5095351;28;20074;-59
2023/06/15 07:11:33;;;;;;;6.43;2.50;;;20.00;86.30;;;;;;5104935;28;20039;-59
2023/06/15 07:14:02;;;;;;;5.43;2.47;;;20.10;86.30;;;;;;5111015;28;20486;-60
2023/06/15 07:16:28;;;;;;;8.10;2.70;;;20.20;85.80;;;;;;5129014;27;20091;-58
2023/06/15 07:18:55;;;;;;;5.03;3.00;;;20.20;85.50;;;;;;5133044;27;20039;-59
2023/06/15 07:21:21;;;;;;;6.40;2.58;;;20.30;85.60;;;;;;5132910;27;20035;-58
2023/06/15 07:23:47;;;;;;;5.07;2.15;;;20.50;85.30;;;;;;5132759;27;20046;-59
2023/06/15 07:26:13;;;;;;;5.50;2.17;;;20.50;84.60;;;;;;5131480;27;20046;-58
2023/06/15 07:28:39;;;;;;;5.90;2.30;;;20.60;84.70;;;;;;5132766;27;20027;-59
2023/06/15 07:31:04;;;;;;;6.88;2.20;;;20.60;84.00;;;;;;5132791;27;20462;-59
2023/06/15 07:33:30;;;;;;;5.93;2.33;;;20.70;82.80;;;;;;5132427;27;20035;-59
2023/06/15 07:35:56;;;;;;;5.53;2.42;;;20.80;82.40;;;;;;5132144;27;20047;-59
2023/06/15 07:38:22;;;;;;;4.63;2.20;;;20.90;82.50;;;;;;5131253;27;20550;-59
2023/06/15 07:40:48;;;;;;;5.05;2.60;;;21.00;83.00;;;;;;5131291;27;20027;-59
2023/06/15 07:43:14;;;;;;;5.75;2.20;;;21.00;82.30;;;;;;5132508;27;20039;-59
2023/06/15 07:45:41;;;;;;;9.85;2.53;;;21.10;82.20;;;;;;5132319;27;20054;-61
2023/06/15 07:48:07;;;;;;;5.78;2.50;;;21.20;81.40;;;;;;5118349;27;20092;-60
2023/06/15 07:50:33;;;;;;;6.30;2.40;;;21.30;81.00;;;;;;5111270;28;20039;-59
2023/06/15 07:52:59;;;;;;;6.50;2.42;;;21.30;80.10;;;;;;5111168;28;20401;-59
2023/06/15 07:55:25;;;;;;;6.88;2.33;;;21.40;79.90;;;;;;5111580;28;20040;-59
2023/06/15 07:57:50;;;;;;;8.65;2.65;;;21.50;79.60;;;;;;5111813;28;20501;-58
2023/06/15 08:00:17;;;;;;;6.68;2.17;;;21.60;78.80;;;;;;5111659;28;20042;-56
2023/06/15 08:02:43;;;;;;;8.20;2.35;;;21.60;78.60;;;;;;5111577;27;20097;-60
2023/06/15 08:05:09;;;;;;;5.50;2.33;;;21.70;78.60;;;;;;5110628;28;20051;-59
2023/06/15 08:07:36;;;;;;;6.72;2.83;;;21.70;77.90;;;;;;5110344;28;20035;-59
2023/06/15 08:10:02;;;;;;;6.22;2.53;;;21.80;77.70;;;;;;5111095;28;20043;-59
2023/06/15 08:12:28;;;;;;;9.63;2.47;;;21.90;77.80;;;;;;5111299;28;20046;-59
2023/06/15 08:14:54;;;;;;;5.88;2.40;;;21.90;77.60;;;;;;5120410;27;20035;-59
2023/06/15 08:17:20;;;;;;;4.82;2.50;;;22.00;77.40;;;;;;5116857;27;20036;-58
2023/06/15 08:19:45;;;;;;;9.20;2.40;;;22.00;77.40;;;;;;5109076;28;20126;-59
2023/06/15 08:22:11;;;;;;;5.07;2.45;;;22.00;77.40;;;;;;5100481;28;20040;-59
2023/06/15 08:24:37;;;;;;;5.20;2.55;;;22.10;77.40;;;;;;5110477;28;20042;-59
2023/06/15 08:27:03;;;;;;;5.13;2.58;;;22.20;77.80;;;;;;5110817;27;20467;-59
2023/06/15 08:29:29;;;;;;;4.13;2.40;;;22.20;77.30;;;;;;5109301;28;20036;-59
2023/06/15 08:31:54;;;;;;;4.22;2.17;;;22.30;76.60;;;;;;5071997;28;20302;-60
2023/06/15 08:34:20;;;;;;;3.95;2.20;;;22.30;75.90;;;;;;5092193;28;20044;-59
2023/06/15 08:36:46;;;;;;;6.03;2.20;;;22.30;76.00;;;;;;5093734;28;20043;-59
2023/06/15 08:39:12;;;;;;;5.13;2.40;;;22.30;76.20;;;;;;5093520;28;20096;-59
2023/06/15 08:41:39;;;;;;;7.35;2.53;;;22.40;76.00;;;;;;5094408;28;20038;-60
2023/06/15 08:44:05;;;;;;;5.00;2.50;;;22.50;75.20;;;;;;5091733;28;20046;-60
2023/06/15 08:46:31;;;;;;;7.13;2.60;;;22.50;75.20;;;;;;5093454;28;20031;-59
2023/06/15 08:48:58;;;;;;;4.95;2.30;;;22.60;73.90;;;;;;5093410;28;20612;-60
2023/06/15 08:51:25;;;;;;;6.57;2.20;;;22.70;73.80;;;;;;5096177;28;20402;-59
2023/06/15 08:53:54;;;;;;;8.48;2.28;;;22.70;73.60;;;;;;5096074;28;20043;-60
2023/06/15 08:56:21;;;;;;;6.32;2.05;;;22.80;73.40;;;;;;5110718;28;20051;-60
2023/06/15 08:58:49;;;;;;;8.02;2.40;;;22.90;72.50;;;;;;5113390;28;20043;-60
2023/06/15 09:01:22;;;;;;;8.20;2.40;;;22.90;72.00;;;;;;5113986;28;20071;-59
2023/06/15 09:03:53;;;;;;;7.00;2.65;;;23.00;72.20;;;;;;5113901;28;20043;-60
2023/06/15 09:06:20;;;;;;;5.13;2.45;;;23.10;71.70;;;;;;5114520;28;20111;-58
2023/06/15 09:08:46;;;;;;;5.75;2.45;;;23.20;71.10;;;;;;5126100;27;20420;-58
2023/06/15 09:11:12;;;;;;;7.55;2.47;;;23.30;69.90;;;;;;5116119;27;20036;-60
2023/06/15 09:13:38;;;;;;;4.72;2.28;;;23.50;68.70;;;;;;5114496;28;20047;-59
2023/06/15 09:16:07;;;;;;;5.80;2.00;;;23.50;68.70;;;;;;5133001;27;20035;-60
2023/06/15 09:18:46;;;;;;;6.95;2.28;;;23.70;67.80;;;;;;5135329;27;20028;-59
2023/06/15 09:21:16;;;;;;;7.22;2.53;;;23.90;66.80;;;;;;5135089;27;20111;-59
2023/06/15 09:23:43;;;;;;;5.80;2.30;;;24.00;67.00;;;;;;5125226;27;20035;-59
2023/06/15 09:26:09;;;;;;;6.57;2.20;;;24.20;67.20;;;;;;5135270;27;20542;-59
2023/06/15 09:28:44;;;;;;;4.28;2.05;;;24.30;67.10;;;;;;5135125;27;20129;-59
2023/06/15 09:31:10;;;;;;;5.40;2.20;;;24.40;65.70;;;;;;5135334;27;20031;-59
2023/06/15 09:33:36;;;;;;;4.13;2.15;;;24.60;66.50;;;;;;5128538;27;20050;-60
2023/06/15 09:36:05;;;;;;;4.18;2.05;;;24.70;66.30;;;;;;5128054;27;20055;-60
2023/06/15 09:38:42;;;;;;;5.50;2.05;;;24.80;67.00;;;;;;5129504;27;20134;-60
2023/06/15 09:41:09;;;;;;;5.75;2.33;;;24.90;66.60;;;;;;5113671;28;20032;-59
2023/06/15 09:43:39;;;;;;;5.47;2.15;;;25.00;65.80;;;;;;5124321;27;20060;-60
2023/06/15 09:46:10;;;;;;;5.43;2.20;;;25.10;65.60;;;;;;5134631;27;21256;-59
2023/06/15 09:48:40;;;;;;;8.65;2.50;;;25.10;64.60;;;;;;5116985;27;20036;-60
2023/06/15 09:51:06;;;;;;;4.60;2.10;;;25.20;65.60;;;;;;5114224;28;20106;-59
2023/06/15 09:53:32;;;;;;;8.02;2.58;;;25.20;65.50;;;;;;5113823;28;20043;-58
2023/06/15 09:55:59;;;;;;;5.57;2.13;;;25.30;64.80;;;;;;5113828;28;20039;-59
2023/06/15 09:58:25;;;;;;;5.28;2.45;;;25.20;64.40;;;;;;5114091;28;20028;-58
2023/06/15 10:00:57;;;;;;;6.07;2.40;;;25.20;64.00;;;;;;5131812;27;20046;-59
2023/06/15 10:03:25;;;;;;;5.57;2.17;;;25.20;63.90;;;;;;5133266;27;20033;-59
2023/06/15 10:05:59;;;;;;;6.45;2.45;;;25.30;64.10;;;;;;5129722;27;20043;-59
2023/06/15 10:08:26;;;;;;;5.38;1.95;;;25.40;64.00;;;;;;5128321;27;20046;-58
2023/06/15 10:10:55;;;;;;;5.00;2.42;;;25.50;63.40;;;;;;5133876;27;20034;-59
2023/06/15 10:13:26;;;;;;;7.78;2.22;;;25.50;62.20;;;;;;5130887;27;20039;-58
2023/06/15 10:15:55;;;;;;;3.97;1.90;;;25.50;62.90;;;;;;5113486;28;20043;-59
2023/06/15 10:18:22;;;;;;;4.18;2.30;;;25.50;61.50;;;;;;5126721;27;20039;-57
2023/06/15 10:20:53;;;;;;;4.13;2.00;;;25.50;61.40;;;;;;5131377;27;20047;-59
2023/06/15 10:23:26;;;;;;;3.42;1.80;;;25.70;60.70;;;;;;5133757;27;20474;-58
2023/06/15 10:25:55;;;;;;;3.83;1.90;;;25.70;59.40;;;;;;5133512;27;20378;-58
2023/06/15 10:28:23;;;;;;;3.63;2.03;;;25.70;59.10;;;;;;5128954;27;20153;-59
2023/06/15 10:31:21;;;;;;;4.50;1.80;;;25.70;59.20;;;;;;5112118;28;20046;-59
2023/06/15 10:33:55;;;;;;;5.40;2.15;;;25.70;59.30;;;;;;5110598;28;20147;-59
2023/06/15 10:36:27;;;;;;;3.78;1.83;;;25.80;59.30;;;;;;5118536;27;20142;-55
2023/06/15 10:39:17;;;;;;;4.50;2.10;;;25.90;58.80;;;;;;5115829;27;20039;-59
2023/06/15 10:41:46;;;;;;;6.43;2.10;;;26.00;57.20;;;;;;5106419;28;20084;-58
2023/06/15 10:44:17;;;;;;;5.90;2.10;;;26.00;57.80;;;;;;5112991;27;20415;-58
2023/06/15 10:46:43;;;;;;;3.63;2.00;;;26.10;58.40;;;;;;5110840;27;20477;-57
2023/06/15 10:49:10;;;;;;;4.63;2.30;;;26.30;57.90;;;;;;5110694;27;20114;-58
2023/06/15 10:51:41;;;;;;;5.20;1.90;;;26.30;57.50;;;;;;5115699;27;20035;-58
2023/06/15 10:54:25;;;;;;;5.97;1.90;;;26.30;57.20;;;;;;5112131;27;20114;-59
2023/06/15 10:56:53;;;;;;;5.13;2.15;;;26.40;56.80;;;;;;5115691;27;20043;-59
2023/06/15 10:59:44;;;;;;;4.75;2.20;;;26.40;57.60;;;;;;5109588;28;20031;-58
2023/06/15 11:02:27;;;;;;;5.38;1.80;;;26.60;56.90;;;;;;5115315;27;20044;-58
2023/06/15 11:05:00;;;;;;;6.20;2.15;;;26.60;57.60;;;;;;5110300;27;20039;-58
2023/06/15 11:07:33;;;;;;;7.00;2.03;;;26.70;57.00;;;;;;5111398;27;20031;-59
2023/06/15 11:10:09;;;;;;;3.97;1.90;;;26.70;55.60;;;;;;5114106;27;20040;-58
2023/06/15 11:12:36;;;;;;;5.57;2.30;;;26.80;56.60;;;;;;5113862;27;20648;-59
2023/06/15 11:15:10;;;;;;;4.80;1.88;;;26.80;55.20;;;;;;5110002;28;20032;-59
2023/06/15 11:17:55;;;;;;;6.28;2.15;;;26.90;55.20;;;;;;5115402;27;20043;-58
2023/06/15 11:20:42;;;;;;;5.85;2.00;;;27.00;56.30;;;;;;5117000;27;20035;-58
2023/06/15 11:23:18;;;;;;;6.85;2.50;;;27.10;56.30;;;;;;5113992;27;20051;-59
2023/06/15 11:25:50;;;;;;;4.38;2.15;;;27.30;55.50;;;;;;5104035;27;20122;-58
2023/06/15 11:28:30;;;;;;;4.90;1.90;;;27.40;56.50;;;;;;5113705;27;20043;-57
2023/06/15 11:30:59;;;;;;;4.78;2.10;;;27.40;56.30;;;;;;5114882;27;20043;-57
2023/06/15 11:33:29;;;;;;;4.70;2.13;;;27.50;56.90;;;;;;5111555;27;20073;-57
2023/06/15 11:35:56;;;;;;;6.20;1.92;;;27.50;55.60;;;;;;5111364;28;20233;-58
2023/06/15 11:38:26;;;;;;;4.05;1.88;;;27.50;56.50;;;;;;5130763;27;20035;-58
2023/06/15 11:41:02;;;;;;;3.63;2.08;;;27.60;55.80;;;;;;5131665;27;20045;-58
2023/06/15 11:43:42;;;;;;;4.82;1.83;;;27.70;54.70;;;;;;5132197;27;20055;-60
2023/06/15 11:46:22;;;;;;;3.20;1.75;;;27.60;53.90;;;;;;5132092;27;20043;-60
2023/06/15 11:48:49;;;;;;;4.38;1.92;;;27.80;54.80;;;;;;5131728;27;20042;-60
2023/06/15 11:51:18;;;;;;;3.30;1.60;;;27.90;55.00;;;;;;5110114;28;20032;-60
2023/06/15 11:53:44;;;;;;;6.63;1.92;;;27.90;55.00;;;;;;5110995;28;20101;-60
2023/06/15 11:56:12;;;;;;;5.20;1.88;;;28.00;55.10;;;;;;5110886;28;20047;-61
2023/06/15 11:58:43;;;;;;;6.15;1.98;;;28.10;55.00;;;;;;5130464;27;20039;-61
2023/06/15 12:01:12;;;;;;;5.03;2.03;;;28.20;55.30;;;;;;5132219;27;20035;-59
2023/06/15 12:03:40;;;;;;;5.47;2.28;;;28.20;55.20;;;;;;5131670;27;20039;-60
2023/06/15 12:06:06;;;;;;;5.97;2.10;;;28.30;55.20;;;;;;5132337;27;20046;-58
2023/06/15 12:08:33;;;;;;;7.10;2.28;;;28.30;55.30;;;;;;5131577;27;20047;-59
2023/06/15 12:10:59;;;;;;;5.63;2.08;;;28.30;56.30;;;;;;5131111;27;20035;-57
2023/06/15 12:13:26;;;;;;;8.43;2.00;;;28.40;56.50;;;;;;5116628;27;20088;-59
2023/06/15 12:15:52;;;;;;;6.85;2.15;;;28.50;56.10;;;;;;5108080;28;20047;-57
2023/06/15 12:18:19;;;;;;;4.20;1.75;;;28.50;56.10;;;;;;5112437;27;20125;-57
2023/06/15 12:20:47;;;;;;;4.88;2.00;;;28.60;55.40;;;;;;5109760;28;20474;-57
2023/06/15 12:23:32;;;;;;;7.20;2.38;;;28.60;55.50;;;;;;5111460;27;20049;-58
2023/06/15 12:26:00;;;;;;;3.63;1.83;;;28.80;55.90;;;;;;5092795;28;20131;-57
2023/06/15 12:28:27;;;;;;;5.97;1.90;;;28.90;56.20;;;;;;5112946;27;20398;-57
2023/06/15 12:31:00;;;;;;;3.50;1.77;;;29.10;55.60;;;;;;5109986;28;20042;-56
2023/06/15 12:33:28;;;;;;;;;;;29.10;54.80;;;;;;5109654;28;20420;-58
2023/06/15 12:35:55;;;;;;;4.45;2.03;;;29.10;54.20;;;;;;5107286;28;20385;-58
2023/06/15 12:38:24;;;;;;;5.22;1.90;;;29.10;55.70;;;;;;5106528;28;20063;-57
2023/06/15 12:40:49;;;;;;;4.38;1.88;;;29.20;54.90;;;;;;5105252;28;20093;-57
2023/06/15 12:43:18;;;;;;;5.32;1.98;;;29.30;54.70;;;;;;5113636;28;20051;-58
2023/06/15 12:45:44;;;;;;;10.95;2.08;;;29.20;55.00;;;;;;5109818;28;20046;-58
2023/06/15 12:48:10;;;;;;;4.78;2.13;;;29.30;54.50;;;;;;5111271;28;20040;-57